sensor_id;sensor_type;location;lat;lon;timestamp;pressure;altitude;pressure_sealevel;temperature;humidity
6216;BME280;3141;49.234;9.326;2023-02-28T00:00:30;100516.09;;;2.83;56.01
6216;BME280;3141;49.234;9.326;2023-02-28T00:01:13;100509.75;;;2.87;56.44
6216;BME280;3141;49.234;9.326;2023-02-28T00:01:56;100518.91;;;2.94;56.03
6216;BME280;3141;49.234;9.326;2023-02-28T00:02:40;100518.59;;;3.00;56.10
6216;BME280;3141;49.234;9.326;2023-02-28T00:03:23;100516.97;;;2.97;56.32
6216;BME280;3141;49.234;9.326;2023-02-28T00:04:05;100515.31;;;2.96;56.32
6216;BME280;3141;49.234;9.326;2023-02-28T00:04:47;100514.44;;;2.96;55.77
6216;BME280;3141;49.234;9.326;2023-02-28T00:05:34;100516.94;;;3.13;55.52
6216;BME280;3141;49.234;9.326;2023-02-28T00:06:17;100513.00;;;3.06;55.72
6216;BME280;3141;49.234;9.326;2023-02-28T00:06:59;100520.16;;;3.02;55.97
6216;BME280;3141;49.234;9.326;2023-02-28T00:07:42;100518.50;;;3.01;56.00
6216;BME280;3141;49.234;9.326;2023-02-28T00:08:24;100521.59;;;3.08;56.26
6216;BME280;3141;49.234;9.326;2023-02-28T00:09:06;100509.72;;;3.02;55.92
6216;BME280;3141;49.234;9.326;2023-02-28T00:09:49;100518.59;;;3.00;55.91
6216;BME280;3141;49.234;9.326;2023-02-28T00:10:31;100515.41;;;2.95;55.98
6216;BME280;3141;49.234;9.326;2023-02-28T00:11:15;100511.53;;;2.86;56.32
6216;BME280;3141;49.234;9.326;2023-02-28T00:11:57;100512.22;;;2.74;56.75
6216;BME280;3141;49.234;9.326;2023-02-28T00:12:41;100521.22;;;2.84;56.70
6216;BME280;3141;49.234;9.326;2023-02-28T00:13:23;100511.16;;;2.92;56.65
6216;BME280;3141;49.234;9.326;2023-02-28T00:14:06;100511.94;;;2.94;56.19
6216;BME280;3141;49.234;9.326;2023-02-28T00:14:48;100517.16;;;2.94;56.49
6216;BME280;3141;49.234;9.326;2023-02-28T00:15:32;100517.66;;;2.85;56.27
6216;BME280;3141;49.234;9.326;2023-02-28T00:16:19;100522.72;;;2.88;56.34
6216;BME280;3141;49.234;9.326;2023-02-28T00:17:02;100518.00;;;2.95;56.17
6216;BME280;3141;49.234;9.326;2023-02-28T00:17:45;100516.78;;;3.00;56.59
6216;BME280;3141;49.234;9.326;2023-02-28T00:18:27;100519.81;;;3.08;55.92
6216;BME280;3141;49.234;9.326;2023-02-28T00:19:09;100518.34;;;2.89;56.35
6216;BME280;3141;49.234;9.326;2023-02-28T00:19:55;100522.66;;;2.90;56.70
6216;BME280;3141;49.234;9.326;2023-02-28T00:20:37;100508.47;;;2.94;56.29
6216;BME280;3141;49.234;9.326;2023-02-28T00:21:20;100520.38;;;2.84;56.72
6216;BME280;3141;49.234;9.326;2023-02-28T00:22:02;100513.81;;;2.77;57.07
6216;BME280;3141;49.234;9.326;2023-02-28T00:22:48;100510.72;;;2.55;57.39
6216;BME280;3141;49.234;9.326;2023-02-28T00:23:30;100514.78;;;2.60;57.40
6216;BME280;3141;49.234;9.326;2023-02-28T00:24:13;100508.41;;;2.80;57.57
6216;BME280;3141;49.234;9.326;2023-02-28T00:24:55;100517.00;;;2.82;57.07
6216;BME280;3141;49.234;9.326;2023-02-28T00:25:38;100525.09;;;2.93;57.18
6216;BME280;3141;49.234;9.326;2023-02-28T00:26:20;100513.59;;;2.95;56.64
6216;BME280;3141;49.234;9.326;2023-02-28T00:27:02;100516.19;;;2.81;57.07
6216;BME280;3141;49.234;9.326;2023-02-28T00:27:45;100510.81;;;2.69;57.28
6216;BME280;3141;49.234;9.326;2023-02-28T00:28:27;100508.69;;;2.60;57.63
6216;BME280;3141;49.234;9.326;2023-02-28T00:29:10;100508.00;;;2.72;57.16
6216;BME280;3141;49.234;9.326;2023-02-28T00:29:52;100512.13;;;2.76;57.01
6216;BME280;3141;49.234;9.326;2023-02-28T00:30:36;100510.81;;;2.69;57.33
6216;BME280;3141;49.234;9.326;2023-02-28T00:31:18;100513.81;;;2.77;57.23
6216;BME280;3141;49.234;9.326;2023-02-28T00:32:00;100512.28;;;2.73;57.25
6216;BME280;3141;49.234;9.326;2023-02-28T00:32:43;100512.97;;;2.76;57.14
6216;BME280;3141;49.234;9.326;2023-02-28T00:33:27;100516.00;;;2.84;57.26
6216;BME280;3141;49.234;9.326;2023-02-28T00:34:09;100511.09;;;2.94;56.47
6216;BME280;3141;49.234;9.326;2023-02-28T00:34:51;100510.06;;;2.96;57.00
6216;BME280;3141;49.234;9.326;2023-02-28T00:35:34;100508.06;;;2.86;56.86
6216;BME280;3141;49.234;9.326;2023-02-28T00:36:16;100507.13;;;2.87;57.00
6216;BME280;3141;49.234;9.326;2023-02-28T00:36:58;100515.06;;;2.85;56.83
6216;BME280;3141;49.234;9.326;2023-02-28T00:37:41;100506.03;;;2.91;56.60
6216;BME280;3141;49.234;9.326;2023-02-28T00:38:23;100511.28;;;2.75;56.94
6216;BME280;3141;49.234;9.326;2023-02-28T00:39:06;100504.53;;;2.87;56.98
6216;BME280;3141;49.234;9.326;2023-02-28T00:39:48;100510.97;;;2.81;56.86
6216;BME280;3141;49.234;9.326;2023-02-28T00:40:30;100508.06;;;2.86;56.94
6216;BME280;3141;49.234;9.326;2023-02-28T00:41:13;100512.53;;;2.84;56.95
6216;BME280;3141;49.234;9.326;2023-02-28T00:41:55;100516.19;;;2.81;57.05
6216;BME280;3141;49.234;9.326;2023-02-28T00:42:38;100510.63;;;2.72;57.17
6216;BME280;3141;49.234;9.326;2023-02-28T00:43:20;100514.75;;;2.76;57.12
6216;BME280;3141;49.234;9.326;2023-02-28T00:44:02;100510.13;;;2.65;57.69
6216;BME280;3141;49.234;9.326;2023-02-28T00:44:45;100507.25;;;2.70;57.48
6216;BME280;3141;49.234;9.326;2023-02-28T00:45:27;100510.63;;;2.72;57.09
6216;BME280;3141;49.234;9.326;2023-02-28T00:46:10;100504.50;;;2.57;57.43
6216;BME280;3141;49.234;9.326;2023-02-28T00:46:52;100511.72;;;2.68;57.71
6216;BME280;3141;49.234;9.326;2023-02-28T00:47:36;100513.66;;;2.64;57.47
6216;BME280;3141;49.234;9.326;2023-02-28T00:48:18;100515.53;;;2.62;57.49
6216;BME280;3141;49.234;9.326;2023-02-28T00:49:00;100512.00;;;2.48;57.71
6216;BME280;3141;49.234;9.326;2023-02-28T00:49:43;100504.41;;;2.59;57.65
6216;BME280;3141;49.234;9.326;2023-02-28T00:50:25;100516.34;;;2.63;57.64
6216;BME280;3141;49.234;9.326;2023-02-28T00:51:07;100512.66;;;2.67;57.46
6216;BME280;3141;49.234;9.326;2023-02-28T00:51:50;100508.28;;;2.52;57.80
6216;BME280;3141;49.234;9.326;2023-02-28T00:52:32;100505.81;;;2.49;57.53
6216;BME280;3141;49.234;9.326;2023-02-28T00:53:15;100511.41;;;2.58;57.73
6216;BME280;3141;49.234;9.326;2023-02-28T00:53:57;100506.16;;;2.74;57.15
6216;BME280;3141;49.234;9.326;2023-02-28T00:54:39;100508.06;;;2.86;56.91
6216;BME280;3141;49.234;9.326;2023-02-28T00:55:22;100511.59;;;2.85;56.99
6216;BME280;3141;49.234;9.326;2023-02-28T00:56:04;100511.03;;;2.80;56.61
6216;BME280;3141;49.234;9.326;2023-02-28T00:56:47;100505.91;;;2.63;57.26
6216;BME280;3141;49.234;9.326;2023-02-28T00:57:29;100502.88;;;2.70;57.42
6216;BME280;3141;49.234;9.326;2023-02-28T00:58:12;100512.91;;;2.78;57.11
6216;BME280;3141;49.234;9.326;2023-02-28T00:58:54;100510.97;;;2.81;57.13
6216;BME280;3141;49.234;9.326;2023-02-28T00:59:36;100513.47;;;2.83;57.05
6216;BME280;3141;49.234;9.326;2023-02-28T01:00:19;100515.84;;;2.72;56.94
6216;BME280;3141;49.234;9.326;2023-02-28T01:01:01;100507.75;;;2.76;57.10
6216;BME280;3141;49.234;9.326;2023-02-28T01:01:45;100509.63;;;2.59;57.44
6216;BME280;3141;49.234;9.326;2023-02-28T01:02:27;100504.41;;;2.59;57.41
6216;BME280;3141;49.234;9.326;2023-02-28T01:03:10;100504.56;;;2.56;57.95
6216;BME280;3141;49.234;9.326;2023-02-28T01:03:52;100511.41;;;2.58;57.94
6216;BME280;3141;49.234;9.326;2023-02-28T01:04:34;100510.97;;;2.66;57.22
6216;BME280;3141;49.234;9.326;2023-02-28T01:05:17;100505.22;;;2.75;57.13
6216;BME280;3141;49.234;9.326;2023-02-28T01:05:59;100503.22;;;2.49;57.59
6216;BME280;3141;49.234;9.326;2023-02-28T01:06:42;100502.47;;;2.62;57.54
6216;BME280;3141;49.234;9.326;2023-02-28T01:07:24;100504.25;;;2.62;57.59
6216;BME280;3141;49.234;9.326;2023-02-28T01:08:07;100499.19;;;2.59;57.72
6216;BME280;3141;49.234;9.326;2023-02-28T01:08:49;100507.25;;;2.70;57.05
6216;BME280;3141;49.234;9.326;2023-02-28T01:09:31;100507.59;;;2.64;57.40
6216;BME280;3141;49.234;9.326;2023-02-28T01:10:14;100501.22;;;2.54;57.95
6216;BME280;3141;49.234;9.326;2023-02-28T01:10:56;100500.88;;;2.44;57.54
6216;BME280;3141;49.234;9.326;2023-02-28T01:11:39;100503.41;;;2.46;58.33
6216;BME280;3141;49.234;9.326;2023-02-28T01:12:23;100505.78;;;2.50;58.14
6216;BME280;3141;49.234;9.326;2023-02-28T01:13:06;100496.59;;;2.59;57.50
6216;BME280;3141;49.234;9.326;2023-02-28T01:13:48;100503.88;;;2.52;57.64
6216;BME280;3141;49.234;9.326;2023-02-28T01:14:30;100502.13;;;2.53;57.80
6216;BME280;3141;49.234;9.326;2023-02-28T01:15:12;100500.88;;;2.60;57.79
6216;BME280;3141;49.234;9.326;2023-02-28T01:15:55;100503.88;;;2.68;57.60
6216;BME280;3141;49.234;9.326;2023-02-28T01:16:38;100485.38;;;2.57;57.55
6216;BME280;3141;49.234;9.326;2023-02-28T01:17:21;100500.19;;;2.56;57.94
6216;BME280;3141;49.234;9.326;2023-02-28T01:18:03;100505.91;;;2.63;57.41
6216;BME280;3141;49.234;9.326;2023-02-28T01:18:46;100506.56;;;2.66;57.40
6216;BME280;3141;49.234;9.326;2023-02-28T01:19:28;100500.88;;;2.60;57.39
6216;BME280;3141;49.234;9.326;2023-02-28T01:20:11;100506.75;;;2.63;57.39
6216;BME280;3141;49.234;9.326;2023-02-28T01:20:53;100499.59;;;2.67;57.83
6216;BME280;3141;49.234;9.326;2023-02-28T01:21:35;100500.56;;;2.50;57.73
6216;BME280;3141;49.234;9.326;2023-02-28T01:22:18;100502.22;;;2.67;57.85
6216;BME280;3141;49.234;9.326;2023-02-28T01:23:00;100500.03;;;2.44;58.00
6216;BME280;3141;49.234;9.326;2023-02-28T01:23:43;100493.31;;;2.40;58.54
6216;BME280;3141;49.234;9.326;2023-02-28T01:24:25;100501.56;;;2.48;58.48
6216;BME280;3141;49.234;9.326;2023-02-28T01:25:08;100497.69;;;2.55;57.69
6216;BME280;3141;49.234;9.326;2023-02-28T01:25:51;100499.28;;;2.42;58.31
6216;BME280;3141;49.234;9.326;2023-02-28T01:26:33;100493.63;;;2.33;58.79
6216;BME280;3141;49.234;9.326;2023-02-28T01:27:15;100495.47;;;2.47;58.47
6216;BME280;3141;49.234;9.326;2023-02-28T01:27:58;100491.59;;;2.54;58.19
6216;BME280;3141;49.234;9.326;2023-02-28T01:28:40;100501.06;;;2.41;58.25
6216;BME280;3141;49.234;9.326;2023-02-28T01:29:23;100496.00;;;2.54;57.95
6216;BME280;3141;49.234;9.326;2023-02-28T01:30:07;100503.91;;;2.36;58.11
6216;BME280;3141;49.234;9.326;2023-02-28T01:30:50;100501.22;;;2.54;58.04
6216;BME280;3141;49.234;9.326;2023-02-28T01:31:33;100494.41;;;2.51;58.12
6216;BME280;3141;49.234;9.326;2023-02-28T01:32:15;100499.88;;;2.47;58.44
6216;BME280;3141;49.234;9.326;2023-02-28T01:32:58;100495.91;;;2.40;58.15
6216;BME280;3141;49.234;9.326;2023-02-28T01:33:41;100500.28;;;2.39;58.11
6216;BME280;3141;49.234;9.326;2023-02-28T01:34:23;100498.75;;;2.51;58.06
6216;BME280;3141;49.234;9.326;2023-02-28T01:35:06;100495.75;;;2.43;58.38
6216;BME280;3141;49.234;9.326;2023-02-28T01:35:48;100497.50;;;2.42;58.41
6216;BME280;3141;49.234;9.326;2023-02-28T01:36:31;100496.00;;;2.38;58.54
6216;BME280;3141;49.234;9.326;2023-02-28T01:37:13;100497.78;;;2.38;58.79
6216;BME280;3141;49.234;9.326;2023-02-28T01:37:55;100497.28;;;2.47;58.47
6216;BME280;3141;49.234;9.326;2023-02-28T01:38:38;100502.63;;;2.44;58.61
6216;BME280;3141;49.234;9.326;2023-02-28T01:39:20;100494.97;;;2.41;58.11
6216;BME280;3141;49.234;9.326;2023-02-28T01:40:03;100494.31;;;2.37;58.96
6216;BME280;3141;49.234;9.326;2023-02-28T01:40:45;100489.25;;;2.50;58.22
6216;BME280;3141;49.234;9.326;2023-02-28T01:41:30;100501.63;;;2.30;58.40
6216;BME280;3141;49.234;9.326;2023-02-28T01:42:13;100496.00;;;2.38;58.81
6216;BME280;3141;49.234;9.326;2023-02-28T01:42:55;100494.31;;;2.37;58.93
6216;BME280;3141;49.234;9.326;2023-02-28T01:44:55;100490.63;;;2.25;59.23
6216;BME280;3141;49.234;9.326;2023-02-28T01:45:38;100501.28;;;2.36;58.74
6216;BME280;3141;49.234;9.326;2023-02-28T01:46:21;100496.81;;;2.38;58.19
6216;BME280;3141;49.234;9.326;2023-02-28T01:47:03;100498.63;;;2.38;58.78
6216;BME280;3141;49.234;9.326;2023-02-28T01:47:46;100493.81;;;2.30;58.54
6216;BME280;3141;49.234;9.326;2023-02-28T01:48:35;100496.16;;;2.19;59.29
6216;BME280;3141;49.234;9.326;2023-02-28T01:49:19;100494.91;;;2.26;59.04
6216;BME280;3141;49.234;9.326;2023-02-28T01:50:04;100489.69;;;2.26;59.03
6216;BME280;3141;49.234;9.326;2023-02-28T01:50:48;100495.06;;;2.23;59.00
6216;BME280;3141;49.234;9.326;2023-02-28T01:51:37;100498.84;;;2.33;58.73
6216;BME280;3141;49.234;9.326;2023-02-28T01:52:21;100495.66;;;2.44;58.12
6216;BME280;3141;49.234;9.326;2023-02-28T01:53:06;100487.75;;;2.46;58.49
6216;BME280;3141;49.234;9.326;2023-02-28T01:53:52;100487.91;;;2.43;58.46
6216;BME280;3141;49.234;9.326;2023-02-28T01:54:35;100487.41;;;2.36;58.27
6216;BME280;3141;49.234;9.326;2023-02-28T01:55:19;100490.63;;;2.25;58.93
6216;BME280;3141;49.234;9.326;2023-02-28T01:56:05;100487.50;;;2.34;58.68
6216;BME280;3141;49.234;9.326;2023-02-28T01:56:55;100477.47;;;2.43;58.66
6216;BME280;3141;49.234;9.326;2023-02-28T01:57:43;100486.41;;;2.38;58.51
6216;BME280;3141;49.234;9.326;2023-02-28T01:58:27;100482.69;;;2.27;58.83
6216;BME280;3141;49.234;9.326;2023-02-28T01:59:12;100481.72;;;2.29;58.72
6216;BME280;3141;49.234;9.326;2023-02-28T01:59:59;100487.16;;;2.41;58.47
6216;BME280;3141;49.234;9.326;2023-02-28T02:00:42;100487.50;;;2.34;58.98
6216;BME280;3141;49.234;9.326;2023-02-28T02:01:26;100482.03;;;2.39;58.40
6216;BME280;3141;49.234;9.326;2023-02-28T02:02:09;100482.88;;;2.40;58.97
6216;BME280;3141;49.234;9.326;2023-02-28T02:02:54;100485.50;;;2.40;58.64
6216;BME280;3141;49.234;9.326;2023-02-28T02:03:37;100486.91;;;2.29;58.68
6216;BME280;3141;49.234;9.326;2023-02-28T02:04:21;100478.75;;;2.35;58.39
6216;BME280;3141;49.234;9.326;2023-02-28T02:05:15;100486.16;;;2.27;58.85
6216;BME280;3141;49.234;9.326;2023-02-28T02:05:58;100488.41;;;2.33;59.06
6216;BME280;3141;49.234;9.326;2023-02-28T02:06:43;100486.75;;;2.32;59.04
6216;BME280;3141;49.234;9.326;2023-02-28T02:07:30;100478.91;;;2.17;59.18
6216;BME280;3141;49.234;9.326;2023-02-28T02:08:20;100480.84;;;2.29;59.14
6216;BME280;3141;49.234;9.326;2023-02-28T02:09:03;100479.81;;;2.31;58.90
6216;BME280;3141;49.234;9.326;2023-02-28T02:09:46;100487.91;;;2.43;59.02
6216;BME280;3141;49.234;9.326;2023-02-28T02:11:19;100484.38;;;2.12;58.89
6216;BME280;3141;49.234;9.326;2023-02-28T02:12:13;100485.72;;;2.19;59.19
6216;BME280;3141;49.234;9.326;2023-02-28T02:13:11;100478.56;;;2.23;58.96
6216;BME280;3141;49.234;9.326;2023-02-28T02:14:30;100476.97;;;2.20;59.26
6216;BME280;3141;49.234;9.326;2023-02-28T02:15:57;100476.31;;;2.32;58.91
6216;BME280;3141;49.234;9.326;2023-02-28T02:17:33;100476.47;;;2.14;59.74
6216;BME280;3141;49.234;9.326;2023-02-28T02:20:27;100469.84;;;2.24;59.11
6216;BME280;3141;49.234;9.326;2023-02-28T02:21:40;100476.31;;;2.01;59.79
6216;BME280;3141;49.234;9.326;2023-02-28T02:22:39;100473.53;;;2.20;59.62
6216;BME280;3141;49.234;9.326;2023-02-28T02:23:39;100467.38;;;2.05;59.40
6216;BME280;3141;49.234;9.326;2023-02-28T02:24:55;100477.75;;;2.22;59.42
6216;BME280;3141;49.234;9.326;2023-02-28T02:29:02;100473.69;;;2.32;58.56
6216;BME280;3141;49.234;9.326;2023-02-28T02:34:08;100470.66;;;2.09;59.45
6216;BME280;3141;49.234;9.326;2023-02-28T02:35:13;100461.66;;;2.14;59.56
6216;BME280;3141;49.234;9.326;2023-02-28T02:36:27;100466.63;;;2.19;59.48
6216;BME280;3141;49.234;9.326;2023-02-28T02:38:10;100463.50;;;1.97;60.00
6216;BME280;3141;49.234;9.326;2023-02-28T02:39:19;100466.03;;;1.98;59.94
6216;BME280;3141;49.234;9.326;2023-02-28T02:40:10;100464.34;;;2.13;59.41
6216;BME280;3141;49.234;9.326;2023-02-28T02:41:14;100460.31;;;2.07;59.44
6216;BME280;3141;49.234;9.326;2023-02-28T02:42:02;100460.66;;;2.01;59.95
6216;BME280;3141;49.234;9.326;2023-02-28T02:43:01;100467.22;;;2.08;59.94
6216;BME280;3141;49.234;9.326;2023-02-28T02:43:51;100463.94;;;2.05;59.69
6216;BME280;3141;49.234;9.326;2023-02-28T02:44:47;100464.63;;;2.08;59.42
6216;BME280;3141;49.234;9.326;2023-02-28T02:45:34;100466.63;;;2.03;59.92
6216;BME280;3141;49.234;9.326;2023-02-28T02:46:25;100462.41;;;2.16;59.42
6216;BME280;3141;49.234;9.326;2023-02-28T02:47:12;100473.63;;;2.18;59.65
6216;BME280;3141;49.234;9.326;2023-02-28T02:47:58;100475.06;;;2.24;58.88
6216;BME280;3141;49.234;9.326;2023-02-28T02:48:43;100467.22;;;2.08;59.25
6216;BME280;3141;49.234;9.326;2023-02-28T02:49:31;100467.72;;;2.15;59.16
6216;BME280;3141;49.234;9.326;2023-02-28T02:50:19;100474.97;;;2.10;59.04
6216;BME280;3141;49.234;9.326;2023-02-28T02:51:07;100464.44;;;1.96;59.83
6216;BME280;3141;49.234;9.326;2023-02-28T02:51:55;100467.53;;;2.02;59.68
6216;BME280;3141;49.234;9.326;2023-02-28T02:52:45;100473.59;;;2.03;59.85
6216;BME280;3141;49.234;9.326;2023-02-28T02:53:34;100463.09;;;2.04;59.61
6216;BME280;3141;49.234;9.326;2023-02-28T02:54:28;100463.84;;;2.06;59.77
6216;BME280;3141;49.234;9.326;2023-02-28T02:55:13;100473.94;;;2.12;59.51
6216;BME280;3141;49.234;9.326;2023-02-28T02:55:57;100472.41;;;1.93;59.83
6216;BME280;3141;49.234;9.326;2023-02-28T02:56:44;100464.22;;;1.83;60.39
6216;BME280;3141;49.234;9.326;2023-02-28T02:57:34;100467.72;;;1.99;60.11
6216;BME280;3141;49.234;9.326;2023-02-28T02:58:21;100466.09;;;2.12;59.91
6216;BME280;3141;49.234;9.326;2023-02-28T02:59:08;100464.94;;;2.18;59.72
6216;BME280;3141;49.234;9.326;2023-02-28T02:59:53;100462.31;;;2.02;59.90
6216;BME280;3141;49.234;9.326;2023-02-28T03:00:41;100461.75;;;2.13;59.60
6216;BME280;3141;49.234;9.326;2023-02-28T03:01:25;100472.44;;;2.08;59.92
6216;BME280;3141;49.234;9.326;2023-02-28T03:02:14;100466.09;;;1.97;60.15
6216;BME280;3141;49.234;9.326;2023-02-28T03:03:00;100465.00;;;2.01;59.82
6216;BME280;3141;49.234;9.326;2023-02-28T03:03:44;100464.81;;;1.88;60.45
6216;BME280;3141;49.234;9.326;2023-02-28T03:04:31;100456.69;;;1.94;59.97
6216;BME280;3141;49.234;9.326;2023-02-28T03:05:26;100462.16;;;2.05;60.00
6216;BME280;3141;49.234;9.326;2023-02-28T03:06:10;100474.59;;;2.16;59.92
6216;BME280;3141;49.234;9.326;2023-02-28T03:06:53;100463.50;;;2.12;59.53
6216;BME280;3141;49.234;9.326;2023-02-28T03:07:36;100464.69;;;1.91;59.73
6216;BME280;3141;49.234;9.326;2023-02-28T03:08:19;100461.81;;;1.80;60.36
6216;BME280;3141;49.234;9.326;2023-02-28T03:09:02;100463.97;;;1.72;60.23
6216;BME280;3141;49.234;9.326;2023-02-28T03:09:52;100462.56;;;1.82;60.24
6216;BME280;3141;49.234;9.326;2023-02-28T03:10:38;100464.59;;;1.93;60.21
6216;BME280;3141;49.234;9.326;2023-02-28T03:11:21;100461.41;;;2.03;60.11
6216;BME280;3141;49.234;9.326;2023-02-28T03:12:03;100459.38;;;1.93;60.07
6216;BME280;3141;49.234;9.326;2023-02-28T03:12:55;100461.13;;;1.92;59.80
6216;BME280;3141;49.234;9.326;2023-02-28T03:15:08;100462.31;;;1.87;60.39
6216;BME280;3141;49.234;9.326;2023-02-28T03:16:03;100462.72;;;1.79;60.27
6216;BME280;3141;49.234;9.326;2023-02-28T03:16:56;100462.13;;;1.90;60.54
6216;BME280;3141;49.234;9.326;2023-02-28T03:17:47;100464.50;;;1.94;60.07
6216;BME280;3141;49.234;9.326;2023-02-28T03:20:58;100467.53;;;2.02;59.90
6216;BME280;3141;49.234;9.326;2023-02-28T03:22:57;100452.13;;;1.82;60.55
6216;BME280;3141;49.234;9.326;2023-02-28T03:23:48;100456.41;;;1.83;60.37
6216;BME280;3141;49.234;9.326;2023-02-28T03:24:45;100462.75;;;1.95;60.04
6216;BME280;3141;49.234;9.326;2023-02-28T03:26:26;100451.66;;;1.91;60.03
6216;BME280;3141;49.234;9.326;2023-02-28T03:27:23;100460.59;;;1.70;60.35
6216;BME280;3141;49.234;9.326;2023-02-28T03:28:43;100457.78;;;1.90;60.25
6216;BME280;3141;49.234;9.326;2023-02-28T03:29:35;100457.03;;;2.04;60.19
6216;BME280;3141;49.234;9.326;2023-02-28T03:30:38;100461.66;;;1.99;60.03
6216;BME280;3141;49.234;9.326;2023-02-28T03:31:33;100457.56;;;2.10;59.51
6216;BME280;3141;49.234;9.326;2023-02-28T03:32:27;100445.31;;;1.95;59.81
6216;BME280;3141;49.234;9.326;2023-02-28T03:33:18;100456.00;;;1.91;60.21
6216;BME280;3141;49.234;9.326;2023-02-28T03:34:15;100460.16;;;2.10;59.43
6216;BME280;3141;49.234;9.326;2023-02-28T03:35:38;100462.78;;;2.10;59.24
6216;BME280;3141;49.234;9.326;2023-02-28T03:36:16;100457.28;;;1.99;60.03
6216;BME280;3141;49.234;9.326;2023-02-28T03:37:11;100463.50;;;1.97;60.22
6216;BME280;3141;49.234;9.326;2023-02-28T03:38:09;100455.94;;;1.92;60.26
6216;BME280;3141;49.234;9.326;2023-02-28T03:39:02;100454.00;;;1.96;60.05
6216;BME280;3141;49.234;9.326;2023-02-28T03:40:07;100461.81;;;1.96;60.34
6216;BME280;3141;49.234;9.326;2023-02-28T03:40:58;100461.50;;;2.02;60.19
6216;BME280;3141;49.234;9.326;2023-02-28T03:41:49;100454.84;;;1.96;60.05
6216;BME280;3141;49.234;9.326;2023-02-28T03:42:36;100455.44;;;2.01;59.88
6216;BME280;3141;49.234;9.326;2023-02-28T03:43:28;100457.28;;;1.99;59.89
6216;BME280;3141;49.234;9.326;2023-02-28T03:44:16;100460.81;;;1.98;59.76
6216;BME280;3141;49.234;9.326;2023-02-28T03:45:02;100460.28;;;1.92;59.93
6216;BME280;3141;49.234;9.326;2023-02-28T03:45:46;100460.66;;;2.01;59.80
6216;BME280;3141;49.234;9.326;2023-02-28T03:46:35;100456.53;;;1.97;60.18
6216;BME280;3141;49.234;9.326;2023-02-28T03:47:29;100458.28;;;1.97;60.14
6216;BME280;3141;49.234;9.326;2023-02-28T03:48:23;100465.38;;;2.10;59.86
6216;BME280;3141;49.234;9.326;2023-02-28T03:49:16;100469.84;;;2.24;58.86
6216;BME280;3141;49.234;9.326;2023-02-28T03:50:47;100463.59;;;2.26;59.31
6216;BME280;3141;49.234;9.326;2023-02-28T03:51:32;100469.31;;;2.02;59.53
6216;BME280;3141;49.234;9.326;2023-02-28T03:52:17;100463.69;;;2.09;59.48
6216;BME280;3141;49.234;9.326;2023-02-28T03:53:11;100465.53;;;2.23;59.19
6216;BME280;3141;49.234;9.326;2023-02-28T03:54:03;100465.38;;;2.26;58.94
6216;BME280;3141;49.234;9.326;2023-02-28T03:54:52;100476.31;;;2.32;58.86
6216;BME280;3141;49.234;9.326;2023-02-28T03:55:49;100472.84;;;2.16;58.95
6216;BME280;3141;49.234;9.326;2023-02-28T03:56:48;100468.31;;;2.20;59.39
6216;BME280;3141;49.234;9.326;2023-02-28T03:57:41;100466.28;;;2.25;59.25
6216;BME280;3141;49.234;9.326;2023-02-28T03:59:53;100471.28;;;2.29;58.79
6216;BME280;3141;49.234;9.326;2023-02-28T04:00:40;100470.81;;;2.21;59.26
6216;BME280;3141;49.234;9.326;2023-02-28T04:01:31;100468.72;;;2.12;59.30
6216;BME280;3141;49.234;9.326;2023-02-28T04:02:17;100472.59;;;2.21;59.29
6216;BME280;3141;49.234;9.326;2023-02-28T04:03:00;100467.63;;;2.16;58.81
6216;BME280;3141;49.234;9.326;2023-02-28T04:03:43;100465.44;;;2.09;59.68
6216;BME280;3141;49.234;9.326;2023-02-28T04:04:25;100466.06;;;2.29;58.98
6216;BME280;3141;49.234;9.326;2023-02-28T04:05:08;100464.75;;;2.21;59.11
6216;BME280;3141;49.234;9.326;2023-02-28T04:05:53;100467.31;;;2.07;59.48
6216;BME280;3141;49.234;9.326;2023-02-28T04:06:36;100471.19;;;2.15;59.46
6216;BME280;3141;49.234;9.326;2023-02-28T04:07:19;100473.53;;;2.20;59.60
6216;BME280;3141;49.234;9.326;2023-02-28T04:08:06;100464.09;;;1.86;60.21
6216;BME280;3141;49.234;9.326;2023-02-28T04:08:49;100470.22;;;2.01;59.69
6216;BME280;3141;49.234;9.326;2023-02-28T04:09:32;100474.69;;;1.99;59.82
6216;BME280;3141;49.234;9.326;2023-02-28T04:10:15;100471.06;;;1.86;60.62
6216;BME280;3141;49.234;9.326;2023-02-28T04:11:07;100468.19;;;1.90;60.58
6216;BME280;3141;49.234;9.326;2023-02-28T04:11:54;100474.34;;;1.89;60.17
6216;BME280;3141;49.234;9.326;2023-02-28T04:12:39;100471.94;;;2.02;60.45
6216;BME280;3141;49.234;9.326;2023-02-28T04:13:22;100457.56;;;2.10;59.49
6216;BME280;3141;49.234;9.326;2023-02-28T04:14:05;100464.03;;;2.03;59.67
6216;BME280;3141;49.234;9.326;2023-02-28T04:14:48;100465.28;;;2.12;59.45
6216;BME280;3141;49.234;9.326;2023-02-28T04:15:31;100465.03;;;2.16;59.62
6216;BME280;3141;49.234;9.326;2023-02-28T04:16:14;100463.34;;;2.00;60.06
6216;BME280;3141;49.234;9.326;2023-02-28T04:16:57;100466.38;;;2.08;59.85
6216;BME280;3141;49.234;9.326;2023-02-28T04:17:39;100466.38;;;2.23;59.33
6216;BME280;3141;49.234;9.326;2023-02-28T04:18:21;100468.41;;;2.18;59.56
6216;BME280;3141;49.234;9.326;2023-02-28T04:19:04;100473.13;;;2.12;59.68
6216;BME280;3141;49.234;9.326;2023-02-28T04:19:47;100471.19;;;2.15;59.81
6216;BME280;3141;49.234;9.326;2023-02-28T04:20:30;100464.84;;;2.19;59.38
6216;BME280;3141;49.234;9.326;2023-02-28T04:21:12;100468.00;;;2.10;59.88
6216;BME280;3141;49.234;9.326;2023-02-28T04:21:54;100466.63;;;2.19;59.69
6216;BME280;3141;49.234;9.326;2023-02-28T04:22:37;100471.84;;;2.19;59.56
6216;BME280;3141;49.234;9.326;2023-02-28T04:23:19;100472.56;;;2.05;59.67
6216;BME280;3141;49.234;9.326;2023-02-28T04:24:02;100477.75;;;2.22;59.33
6216;BME280;3141;49.234;9.326;2023-02-28T04:24:45;100477.13;;;2.17;59.29
6216;BME280;3141;49.234;9.326;2023-02-28T04:25:27;100475.28;;;2.19;59.63
6216;BME280;3141;49.234;9.326;2023-02-28T04:26:10;100477.97;;;2.18;59.10
6216;BME280;3141;49.234;9.326;2023-02-28T04:26:54;100477.47;;;2.11;59.58
6216;BME280;3141;49.234;9.326;2023-02-28T04:27:37;100475.81;;;2.10;59.98
6216;BME280;3141;49.234;9.326;2023-02-28T04:28:19;100469.31;;;2.17;59.42
6216;BME280;3141;49.234;9.326;2023-02-28T04:29:03;100480.00;;;2.28;59.46
6216;BME280;3141;49.234;9.326;2023-02-28T04:29:46;100468.03;;;2.24;59.27
6216;BME280;3141;49.234;9.326;2023-02-28T04:30:28;100477.47;;;2.11;59.48
6216;BME280;3141;49.234;9.326;2023-02-28T04:31:11;100477.75;;;2.22;59.16
6216;BME280;3141;49.234;9.326;2023-02-28T04:31:55;100467.81;;;2.29;59.58
6216;BME280;3141;49.234;9.326;2023-02-28T04:32:41;100467.03;;;2.43;58.96